Time;durP1;ratioP1;P1;durP2;ratioP2;P2;SDS_P1;SDS_P2;PMS_P1;PMS_P2;Temp;Humidity;BMP_temperature;BMP_pressure;BME280_temperature;BME280_humidity;BME280_pressure;Samples;Min_cycle;Max_cycle;Signal;HPM_P1;HPM_P2
2023/08/07 00:00:38;;;;;;;1.58;1.13;;;10.50;99.90;;;;;;8325743;28;20494;-79
2023/08/07 00:04:38;;;;;;;2.28;1.10;;;10.50;99.90;;;;;;8313955;28;20022;-79
2023/08/07 00:08:39;;;;;;;1.95;1.00;;;10.40;99.90;;;;;;8332685;28;20080;-79
2023/08/07 00:12:40;;;;;;;0.85;0.73;;;10.50;99.90;;;;;;8312068;28;20527;-79
2023/08/07 00:16:41;;;;;;;1.40;1.00;;;10.50;99.90;;;;;;8326278;28;20033;-79
2023/08/07 00:20:42;;;;;;;2.35;0.80;;;10.40;99.90;;;;;;8336406;28;20018;-79
2023/08/07 00:24:42;;;;;;;3.85;1.23;;;10.60;99.90;;;;;;8329266;28;20048;-78
2023/08/07 00:28:43;;;;;;;2.22;1.05;;;10.50;99.90;;;;;;8331006;28;20036;-79
2023/08/07 00:32:44;;;;;;;2.33;1.20;;;10.40;99.90;;;;;;8330382;28;20478;-78
2023/08/07 00:36:44;;;;;;;1.67;1.00;;;10.20;99.90;;;;;;8323364;28;20057;-79
2023/08/07 00:40:45;;;;;;;5.72;1.00;;;10.40;99.90;;;;;;8336410;28;20076;-78
2023/08/07 00:44:45;;;;;;;1.08;0.90;;;10.30;99.90;;;;;;8322012;28;20017;-78
2023/08/07 00:48:46;;;;;;;5.75;1.25;;;10.50;99.90;;;;;;8335743;28;20026;-79
2023/08/07 00:52:47;;;;;;;2.15;1.17;;;10.40;99.90;;;;;;8333586;28;20025;-78
2023/08/07 00:56:47;;;;;;;1.85;1.05;;;10.40;99.90;;;;;;8324553;28;20021;-78
2023/08/07 01:00:48;;;;;;;2.75;1.10;;;10.40;99.90;;;;;;8350425;28;20060;-79
2023/08/07 01:04:50;;;;;;;1.05;0.93;;;10.60;99.90;;;;;;8328716;28;20181;-78
2023/08/07 01:08:50;;;;;;;2.58;1.40;;;10.50;99.90;;;;;;8337235;28;20025;-78
2023/08/07 01:13:03;;;;;;;2.53;1.38;;;10.40;99.90;;;;;;8327225;28;20017;-79
2023/08/07 01:17:09;;;;;;;1.77;1.20;;;10.50;99.90;;;;;;8323231;28;20386;-79
2023/08/07 01:21:18;;;;;;;3.30;1.15;;;10.50;99.90;;;;;;8323092;28;20025;-78
2023/08/07 01:25:19;;;;;;;2.00;1.02;;;10.40;99.90;;;;;;8328623;28;20029;-78
2023/08/07 01:29:30;;;;;;;1.70;1.20;;;10.50;99.90;;;;;;8338643;28;20128;-78
2023/08/07 01:33:37;;;;;;;3.30;1.25;;;10.60;99.90;;;;;;8316998;28;20407;-78
2023/08/07 01:37:41;;;;;;;2.42;1.00;;;10.60;99.90;;;;;;8316857;28;20112;-78
2023/08/07 01:41:42;;;;;;;1.85;1.10;;;10.40;99.90;;;;;;8316959;28;20020;-78
2023/08/07 01:45:42;;;;;;;2.95;1.20;;;10.50;99.90;;;;;;8309119;28;20029;-78
2023/08/07 01:49:43;;;;;;;2.03;1.20;;;10.50;99.90;;;;;;8313467;28;20080;-79
2023/08/07 01:53:43;;;;;;;2.70;1.30;;;10.50;99.90;;;;;;8321239;28;20383;-78
2023/08/07 01:57:44;;;;;;;4.05;1.25;;;10.50;99.90;;;;;;8319911;28;20034;-79
2023/08/07 02:01:44;;;;;;;1.92;1.20;;;10.40;99.90;;;;;;8306689;28;20033;-78
2023/08/07 02:05:46;;;;;;;2.95;1.30;;;10.50;99.90;;;;;;8330180;28;20040;-78
2023/08/07 02:09:46;;;;;;;3.13;1.35;;;10.50;99.90;;;;;;8332492;28;20032;-79
2023/08/07 02:13:47;;;;;;;1.83;1.23;;;10.50;99.90;;;;;;8328677;28;20041;-78
2023/08/07 02:17:47;;;;;;;1.70;1.25;;;10.50;99.90;;;;;;8311492;28;20051;-79
2023/08/07 02:21:48;;;;;;;4.30;1.35;;;10.60;99.90;;;;;;8312434;28;20478;-79
2023/08/07 02:25:48;;;;;;;2.38;1.20;;;10.50;99.90;;;;;;8310930;28;20026;-78
2023/08/07 02:29:50;;;;;;;2.78;1.20;;;10.30;99.90;;;;;;8330406;28;20437;-78
2023/08/07 02:33:51;;;;;;;1.30;0.93;;;10.30;99.90;;;;;;8310350;28;20026;-78
2023/08/07 02:37:51;;;;;;;2.25;1.20;;;10.30;99.90;;;;;;8309986;28;20032;-78
2023/08/07 02:41:52;;;;;;;2.00;1.20;;;10.30;99.90;;;;;;8318344;28;20025;-78
2023/08/07 02:45:53;;;;;;;2.05;1.30;;;10.30;99.90;;;;;;8315423;28;20044;-79
2023/08/07 02:49:53;;;;;;;3.55;1.35;;;10.30;99.90;;;;;;8307657;28;20024;-78
2023/08/07 02:53:54;;;;;;;2.67;1.50;;;10.20;99.90;;;;;;8310056;28;20524;-78
2023/08/07 02:57:54;;;;;;;1.85;1.23;;;10.20;99.90;;;;;;8313227;28;20029;-78
2023/08/07 03:01:56;;;;;;;3.03;1.35;;;10.20;99.90;;;;;;8316347;28;20028;-78
2023/08/07 03:05:56;;;;;;;3.88;1.65;;;10.10;99.90;;;;;;8330943;28;20116;-78
2023/08/07 03:09:57;;;;;;;4.05;1.63;;;10.10;99.90;;;;;;8326879;28;20500;-78
2023/08/07 03:13:57;;;;;;;2.22;1.40;;;10.10;99.90;;;;;;8337920;28;20025;-78
2023/08/07 03:17:58;;;;;;;3.50;1.50;;;10.10;99.90;;;;;;8312731;28;20108;-77
2023/08/07 03:21:58;;;;;;;2.75;1.33;;;10.40;99.90;;;;;;8317526;28;20083;-78
2023/08/07 03:26:07;;;;;;;3.28;1.50;;;10.50;99.90;;;;;;8314973;28;20037;-78
2023/08/07 03:30:08;;;;;;;2.00;1.35;;;10.40;99.90;;;;;;8307805;28;20033;-78
2023/08/07 03:34:09;;;;;;;3.08;1.73;;;10.60;99.90;;;;;;8326574;28;20036;-78
2023/08/07 03:38:09;;;;;;;5.70;1.60;;;10.60;99.90;;;;;;8318734;28;20413;-78
2023/08/07 03:42:10;;;;;;;3.00;1.45;;;10.50;99.90;;;;;;8326079;28;20026;-79
2023/08/07 03:46:11;;;;;;;3.00;1.60;;;10.20;99.90;;;;;;8308466;28;20108;-78
2023/08/07 03:50:12;;;;;;;5.43;1.75;;;10.10;99.90;;;;;;8310986;28;20025;-78
2023/08/07 03:54:12;;;;;;;3.55;1.50;;;10.10;99.90;;;;;;8323456;28;20021;-78
2023/08/07 03:58:13;;;;;;;2.58;1.67;;;10.20;99.90;;;;;;8330978;28;20029;-78
2023/08/07 04:02:13;;;;;;;2.25;1.70;;;10.10;99.90;;;;;;8333022;28;20034;-78
2023/08/07 04:06:15;;;;;;;3.67;1.33;;;10.20;99.90;;;;;;8412205;22;20621;-81
2023/08/07 04:10:16;;;;;;;3.40;1.77;;;10.10;99.90;;;;;;8400555;28;20071;-81
2023/08/07 04:14:17;;;;;;;2.17;1.40;;;10.00;99.90;;;;;;8422007;28;20054;-81
2023/08/07 04:18:17;;;;;;;3.08;1.40;;;10.00;99.90;;;;;;8389731;28;20024;-82
2023/08/07 04:22:18;;;;;;;2.95;1.75;;;9.90;99.90;;;;;;8403404;28;20039;-81
2023/08/07 04:26:18;;;;;;;3.08;1.58;;;10.00;99.90;;;;;;8390879;28;20037;-81
2023/08/07 04:30:19;;;;;;;3.13;1.42;;;10.10;99.90;;;;;;8389878;28;20035;-81
2023/08/07 04:34:19;;;;;;;2.10;1.48;;;10.10;99.90;;;;;;8388245;28;20022;-81
2023/08/07 04:38:20;;;;;;;3.75;2.00;;;10.00;99.90;;;;;;8385074;28;20154;-82
2023/08/07 04:42:20;;;;;;;3.45;1.38;;;10.10;99.90;;;;;;8404538;28;20550;-82
2023/08/07 04:46:21;;;;;;;4.40;1.63;;;10.20;99.90;;;;;;8384847;28;20032;-82
2023/08/07 04:50:21;;;;;;;4.32;1.95;;;10.20;99.90;;;;;;8384290;28;20048;-81
2023/08/07 04:54:22;;;;;;;2.70;1.55;;;10.40;99.90;;;;;;8380499;28;20021;-81
2023/08/07 04:58:22;;;;;;;1.70;1.38;;;10.60;99.90;;;;;;8380960;28;20021;-81
2023/08/07 05:02:23;;;;;;;2.53;1.40;;;10.70;99.90;;;;;;8384709;28;20029;-80
2023/08/07 05:06:24;;;;;;;3.55;1.52;;;10.70;99.90;;;;;;8379405;28;20059;-81
2023/08/07 05:10:24;;;;;;;3.28;1.30;;;10.70;99.90;;;;;;8381231;28;20089;-81
2023/08/07 05:14:25;;;;;;;2.63;1.63;;;10.80;99.90;;;;;;8391281;28;20028;-81
2023/08/07 05:18:26;;;;;;;2.90;1.40;;;11.00;99.90;;;;;;8383331;28;20026;-81
2023/08/07 05:22:26;;;;;;;2.75;1.30;;;11.30;99.90;;;;;;8376069;28;20094;-81
2023/08/07 05:26:29;;;;;;;3.28;1.30;;;11.40;99.90;;;;;;8384184;28;20064;-81
2023/08/07 05:30:30;;;;;;;3.88;1.50;;;11.50;99.90;;;;;;8382898;28;20023;-81
2023/08/07 05:34:30;;;;;;;1.98;1.38;;;11.50;99.90;;;;;;8384179;28;20025;-80
2023/08/07 05:38:31;;;;;;;2.10;1.40;;;11.80;99.90;;;;;;8383857;28;20021;-82
2023/08/07 05:42:31;;;;;;;1.83;1.02;;;11.90;99.90;;;;;;8398479;28;20570;-82
2023/08/07 05:46:32;;;;;;;1.73;1.20;;;12.20;99.90;;;;;;8374995;28;20132;-81
2023/08/07 05:50:32;;;;;;;3.38;1.75;;;12.20;99.90;;;;;;8387943;28;20029;-81
2023/08/07 05:54:33;;;;;;;5.03;1.67;;;12.30;99.90;;;;;;8383032;28;20020;-81
2023/08/07 05:58:34;;;;;;;4.13;1.38;;;12.10;99.90;;;;;;8383805;28;20031;-81
2023/08/07 06:02:34;;;;;;;3.38;1.25;;;12.30;99.90;;;;;;8379796;28;20423;-81
2023/08/07 06:06:35;;;;;;;2.30;1.38;;;12.50;99.90;;;;;;8398951;28;20035;-80
2023/08/07 06:10:37;;;;;;;3.25;1.20;;;12.50;99.90;;;;;;8387853;28;20242;-81
2023/08/07 06:14:38;;;;;;;5.60;1.67;;;12.50;99.90;;;;;;8380016;28;20017;-80
2023/08/07 06:18:38;;;;;;;3.72;1.20;;;12.50;99.90;;;;;;8391710;28;20611;-80
2023/08/07 06:22:39;;;;;;;3.05;1.27;;;12.60;99.90;;;;;;8378347;28;20021;-78
2023/08/07 06:26:39;;;;;;;2.30;1.55;;;12.60;99.90;;;;;;8378882;28;20441;-81
2023/08/07 06:30:40;;;;;;;5.28;1.83;;;12.60;99.90;;;;;;8391292;28;20396;-81
2023/08/07 06:34:40;;;;;;;2.20;1.42;;;13.00;99.90;;;;;;8378861;28;20025;-81
2023/08/07 06:38:41;;;;;;;3.40;1.70;;;13.00;99.90;;;;;;8378088;28;20051;-81
2023/08/07 06:42:41;;;;;;;2.55;1.60;;;13.10;99.90;;;;;;8369275;28;20561;-81
2023/08/07 06:46:42;;;;;;;2.63;1.17;;;13.50;99.90;;;;;;8373480;28;20536;-81
2023/08/07 06:50:42;;;;;;;3.03;1.23;;;14.20;99.90;;;;;;8371480;28;20025;-81
2023/08/07 06:54:43;;;;;;;3.15;1.40;;;14.60;99.90;;;;;;8373369;28;20033;-80
2023/08/07 06:58:44;;;;;;;2.83;1.38;;;15.70;99.90;;;;;;8367161;28;20040;-82
2023/08/07 07:02:44;;;;;;;3.60;1.25;;;17.20;99.90;;;;;;8374019;28;20029;-87
2023/08/07 07:06:45;;;;;;;1.60;1.30;;;16.90;99.90;;;;;;8372372;28;20035;-88
2023/08/07 07:10:45;;;;;;;2.67;1.40;;;17.00;99.90;;;;;;8367609;28;20523;-87
2023/08/07 07:14:46;;;;;;;3.35;1.40;;;16.80;99.90;;;;;;8369882;28;20032;-87
2023/08/07 07:18:50;;;;;;;1.75;1.38;;;16.20;99.90;;;;;;8375718;28;20105;-87
2023/08/07 07:22:51;;;;;;;3.92;1.63;;;15.70;99.90;;;;;;8374570;28;20516;-87
2023/08/07 07:26:51;;;;;;;2.20;1.23;;;15.80;99.90;;;;;;8370458;28;20035;-85
2023/08/07 07:30:52;;;;;;;2.53;1.20;;;16.10;99.90;;;;;;8367963;28;20399;-80
2023/08/07 07:34:53;;;;;;;2.22;1.30;;;16.00;99.90;;;;;;8372736;28;20052;-80
2023/08/07 07:38:53;;;;;;;4.78;1.58;;;15.90;99.90;;;;;;8372999;28;20400;-81
2023/08/07 07:42:54;;;;;;;2.97;1.20;;;16.10;99.90;;;;;;8365876;28;20155;-83
2023/08/07 07:46:54;;;;;;;1.98;1.25;;;16.10;99.90;;;;;;8373570;28;20033;-80
2023/08/07 07:51:00;;;;;;;3.67;1.30;;;16.20;99.90;;;;;;8392831;28;20013;-82
2023/08/07 07:55:00;;;;;;;1.55;1.10;;;16.00;99.90;;;;;;8385737;28;20042;-82
2023/08/07 07:59:01;;;;;;;1.50;1.20;;;15.70;99.90;;;;;;8402933;28;20047;-83
2023/08/07 08:03:02;;;;;;;1.63;1.38;;;15.70;99.90;;;;;;8401487;28;20056;-83
2023/08/07 08:07:03;;;;;;;2.35;1.30;;;15.90;99.90;;;;;;8380197;28;20081;-82
2023/08/07 08:11:04;;;;;;;3.53;1.02;;;15.80;99.90;;;;;;8373165;28;20048;-82
2023/08/07 08:15:05;;;;;;;2.53;1.35;;;15.50;99.90;;;;;;8400663;28;20032;-83
2023/08/07 08:19:08;;;;;;;2.08;1.00;;;15.10;99.90;;;;;;8381500;28;20021;-82
2023/08/07 08:23:08;;;;;;;2.30;1.20;;;15.00;99.90;;;;;;8380891;28;20630;-81
2023/08/07 08:27:09;;;;;;;3.42;1.30;;;16.20;99.90;;;;;;8372218;28;20020;-82
2023/08/07 08:31:09;;;;;;;3.20;1.20;;;16.20;99.90;;;;;;8373915;28;20017;-82
2023/08/07 08:35:10;;;;;;;2.42;1.35;;;16.60;99.90;;;;;;8381647;28;20024;-82
2023/08/07 08:39:10;;;;;;;2.88;1.40;;;17.20;99.90;;;;;;8403812;28;20027;-83
2023/08/07 08:43:13;;;;;;;2.17;1.15;;;17.20;99.90;;;;;;8387683;28;20576;-82
2023/08/07 08:47:15;;;;;;;1.75;0.90;;;18.20;99.90;;;;;;8385454;28;20051;-82
2023/08/07 08:51:18;;;;;;;1.60;1.45;;;17.70;99.90;;;;;;8394086;28;20036;-82
2023/08/07 08:55:21;;;;;;;1.83;1.10;;;17.40;99.90;;;;;;8389214;28;20030;-82
2023/08/07 08:59:21;;;;;;;2.35;1.20;;;17.10;99.90;;;;;;8412609;28;20024;-81
2023/08/07 09:03:23;;;;;;;3.53;1.40;;;16.80;99.90;;;;;;8384804;28;20031;-80
2023/08/07 09:07:26;;;;;;;1.38;1.00;;;17.10;99.90;;;;;;8386895;28;20028;-80
2023/08/07 09:11:28;;;;;;;2.65;1.17;;;17.20;99.90;;;;;;8381804;28;20138;-82
2023/08/07 09:15:31;;;;;;;2.45;1.27;;;17.70;99.90;;;;;;8386349;28;20037;-81
2023/08/07 09:19:31;;;;;;;2.30;1.20;;;17.50;99.90;;;;;;8382113;28;20051;-81
2023/08/07 09:23:32;;;;;;;1.70;1.10;;;17.90;99.90;;;;;;8387138;28;20032;-82
2023/08/07 09:27:33;;;;;;;2.10;1.00;;;18.00;99.90;;;;;;8383045;28;20115;-80
2023/08/07 09:31:36;;;;;;;4.90;0.98;;;18.40;99.90;;;;;;8396187;28;20024;-80
2023/08/07 09:35:37;;;;;;;1.52;1.23;;;19.10;99.90;;;;;;8399426;28;20024;-80
2023/08/07 09:39:37;;;;;;;2.63;1.30;;;18.70;99.90;;;;;;8380535;28;20427;-81
2023/08/07 09:43:38;;;;;;;1.20;1.10;;;18.60;99.90;;;;;;8385148;28;20023;-81
2023/08/07 09:47:38;;;;;;;0.90;0.70;;;19.40;99.90;;;;;;8398398;28;20021;-83
2023/08/07 09:51:43;;;;;;;1.52;0.90;;;18.60;99.90;;;;;;8381335;28;20031;-83
2023/08/07 09:55:44;;;;;;;1.08;0.57;;;18.00;99.90;;;;;;8400968;28;20013;-84
2023/08/07 09:59:50;;;;;;;1.33;0.70;;;18.00;99.90;;;;;;8390236;28;20040;-83
2023/08/07 10:03:51;;;;;;;1.20;0.82;;;17.80;99.90;;;;;;8377910;28;20055;-84
2023/08/07 10:07:54;;;;;;;1.52;0.90;;;17.80;99.90;;;;;;8393309;28;20515;-84
2023/08/07 10:11:55;;;;;;;3.22;1.08;;;18.10;99.90;;;;;;8383658;28;20055;-84
2023/08/07 10:15:58;;;;;;;1.80;1.00;;;18.50;99.90;;;;;;8387957;28;20029;-85
2023/08/07 10:19:59;;;;;;;1.77;0.95;;;18.80;99.90;;;;;;8390970;28;20029;-85
2023/08/07 10:24:01;;;;;;;1.85;1.08;;;18.40;99.90;;;;;;8384304;28;20028;-85
2023/08/07 10:28:03;;;;;;;2.05;1.05;;;18.90;99.90;;;;;;8389916;28;20028;-85
2023/08/07 10:32:06;;;;;;;1.40;1.10;;;18.70;99.90;;;;;;8391966;28;20481;-83
2023/08/07 10:36:10;;;;;;;1.38;0.85;;;18.60;99.90;;;;;;8390490;28;20020;-83
2023/08/07 10:40:12;;;;;;;1.63;1.00;;;19.20;99.90;;;;;;8399888;28;20067;-83
2023/08/07 10:44:21;;;;;;;1.48;1.10;;;19.50;99.90;;;;;;8386506;28;20085;-83
2023/08/07 10:48:21;;;;;;;2.08;1.00;;;19.50;99.90;;;;;;8381588;28;20124;-80
2023/08/07 10:52:25;;;;;;;2.17;1.00;;;19.80;99.90;;;;;;8386040;28;20024;-80
2023/08/07 10:56:34;;;;;;;1.92;0.77;;;19.70;99.90;;;;;;8373330;28;20028;-81
2023/08/07 11:00:34;;;;;;;3.42;1.20;;;19.10;99.90;;;;;;8365851;28;20047;-81
2023/08/07 11:04:36;;;;;;;0.95;0.80;;;18.90;99.90;;;;;;8383801;28;20036;-79
2023/08/07 11:08:37;;;;;;;1.65;1.05;;;18.60;99.90;;;;;;8367230;28;20032;-81
2023/08/07 11:12:38;;;;;;;1.08;0.98;;;17.80;99.90;;;;;;8388984;28;20024;-80
2023/08/07 11:16:39;;;;;;;1.10;0.88;;;18.20;99.90;;;;;;8408888;28;20024;-81
2023/08/07 11:20:39;;;;;;;1.27;1.15;;;20.30;99.90;;;;;;8392612;28;20718;-81
2023/08/07 11:24:40;;;;;;;1.23;0.90;;;20.70;99.90;;;;;;8385665;28;20028;-81
2023/08/07 11:28:41;;;;;;;2.15;0.93;;;20.20;99.90;;;;;;8372578;28;20488;-82
2023/08/07 11:32:42;;;;;;;1.00;0.65;;;19.60;99.90;;;;;;8390069;28;20013;-81
2023/08/07 11:36:43;;;;;;;1.30;1.00;;;19.20;99.90;;;;;;8365414;28;20400;-81
2023/08/07 11:40:43;;;;;;;2.10;1.13;;;18.10;99.90;;;;;;8389412;28;20020;-82
2023/08/07 11:44:45;;;;;;;1.35;1.00;;;18.20;99.90;;;;;;8390383;28;20021;-82
2023/08/07 11:48:45;;;;;;;1.00;0.70;;;19.30;99.90;;;;;;8374717;28;20056;-82
2023/08/07 11:52:46;;;;;;;0.88;0.63;;;19.80;99.90;;;;;;8385228;28;20078;-83
2023/08/07 11:56:47;;;;;;;3.13;0.80;;;18.90;99.90;;;;;;8384481;28;20025;-81
2023/08/07 12:00:47;;;;;;;2.35;1.20;;;18.80;99.90;;;;;;8366119;28;20029;-81
2023/08/07 12:04:48;;;;;;;2.63;1.10;;;18.70;99.90;;;;;;8368363;28;20079;-81
2023/08/07 12:08:53;;;;;;;1.70;0.80;;;19.90;99.90;;;;;;8373941;28;20021;-80
2023/08/07 12:13:00;;;;;;;1.05;0.90;;;19.10;99.90;;;;;;8375375;28;20043;-80
2023/08/07 12:17:02;;;;;;;2.75;1.25;;;18.20;99.90;;;;;;8390294;28;20031;-79
2023/08/07 12:21:06;;;;;;;1.48;1.10;;;17.10;99.90;;;;;;8391961;28;20020;-83
2023/08/07 12:25:07;;;;;;;3.85;1.02;;;16.70;99.90;;;;;;8388094;28;20030;-82
2023/08/07 12:29:07;;;;;;;2.00;1.10;;;17.30;99.90;;;;;;8386274;28;20031;-81
2023/08/07 12:33:08;;;;;;;1.48;0.80;;;18.10;99.90;;;;;;8401951;28;20477;-83
2023/08/07 12:37:08;;;;;;;1.58;0.90;;;18.10;99.90;;;;;;8391623;28;20032;-82
2023/08/07 12:41:09;;;;;;;1.75;1.00;;;18.70;99.90;;;;;;8374630;28;20048;-82
2023/08/07 12:45:10;;;;;;;1.20;0.85;;;19.60;99.90;;;;;;8377173;28;20031;-82
2023/08/07 12:49:11;;;;;;;1.90;0.80;;;20.20;99.90;;;;;;8371475;28;20123;-82
2023/08/07 12:53:11;;;;;;;2.92;0.98;;;20.20;99.90;;;;;;8381479;28;20081;-81
2023/08/07 12:57:12;;;;;;;1.40;1.00;;;19.20;99.90;;;;;;8383005;28;20044;-82
2023/08/07 13:01:12;;;;;;;1.02;0.77;;;18.20;99.90;;;;;;8379826;28;20029;-82
2023/08/07 13:05:14;;;;;;;2.08;0.88;;;18.10;99.90;;;;;;8396007;28;20059;-81
2023/08/07 13:09:15;;;;;;;2.20;0.95;;;17.70;99.90;;;;;;8383708;28;20527;-82
2023/08/07 13:13:15;;;;;;;1.50;0.95;;;17.50;99.90;;;;;;8374930;28;20024;-82
2023/08/07 13:17:16;;;;;;;1.40;0.98;;;17.20;99.90;;;;;;8396710;28;20032;-82
2023/08/07 13:21:16;;;;;;;2.67;0.95;;;16.40;99.90;;;;;;8382024;28;20289;-82
2023/08/07 13:25:17;;;;;;;1.50;0.82;;;16.00;99.90;;;;;;8386558;28;20048;-82
2023/08/07 13:29:17;;;;;;;1.40;1.10;;;15.90;99.90;;;;;;8380716;28;20036;-79
2023/08/07 13:33:19;;;;;;;1.67;1.00;;;16.00;99.90;;;;;;8373437;28;20047;-81
2023/08/07 13:37:21;;;;;;;2.33;1.08;;;16.40;99.90;;;;;;8372750;28;20063;-81
2023/08/07 13:41:21;;;;;;;1.15;0.90;;;16.70;99.90;;;;;;8371212;28;20025;-81
2023/08/07 13:45:22;;;;;;;1.55;0.95;;;17.70;99.90;;;;;;8367980;28;20046;-80
2023/08/07 13:49:23;;;;;;;1.45;1.10;;;18.40;99.90;;;;;;8375202;28;20131;-82
2023/08/07 13:53:28;;;;;;;2.00;1.00;;;18.60;99.90;;;;;;8372683;28;20032;-81
2023/08/07 13:57:29;;;;;;;1.40;0.90;;;17.80;99.90;;;;;;8374842;28;20032;-82
2023/08/07 14:01:30;;;;;;;1.20;1.05;;;16.90;99.90;;;;;;8385188;28;20035;-80
2023/08/07 14:05:31;;;;;;;2.20;1.20;;;17.00;99.90;;;;;;8367001;28;20028;-81
2023/08/07 14:09:32;;;;;;;1.73;1.20;;;17.00;99.90;;;;;;8376097;28;20043;-79
2023/08/07 14:13:32;;;;;;;1.50;1.00;;;16.80;99.90;;;;;;8375467;28;20024;-80
2023/08/07 14:17:33;;;;;;;2.30;1.30;;;16.70;99.90;;;;;;8376241;28;20060;-81
2023/08/07 14:21:33;;;;;;;1.33;1.00;;;16.30;99.90;;;;;;8375258;28;20024;-80
2023/08/07 14:25:34;;;;;;;3.70;1.30;;;15.90;99.90;;;;;;8379400;28;20036;-79
2023/08/07 14:29:34;;;;;;;4.28;0.82;;;15.40;99.90;;;;;;8368696;28;20536;-80
2023/08/07 14:33:35;;;;;;;1.95;1.20;;;15.10;99.90;;;;;;8379055;28;20098;-82
2023/08/07 14:37:36;;;;;;;2.97;1.38;;;15.00;99.90;;;;;;8375756;28;20028;-80
2023/08/07 14:41:36;;;;;;;1.20;0.85;;;15.00;99.90;;;;;;8400463;28;20035;-79
2023/08/07 14:45:37;;;;;;;2.03;1.08;;;14.80;99.90;;;;;;8398758;28;20029;-80
2023/08/07 14:49:37;;;;;;;1.10;1.00;;;14.90;99.90;;;;;;8382812;28;20025;-81
2023/08/07 14:53:38;;;;;;;1.45;0.88;;;16.30;99.90;;;;;;8371438;28;20856;-81
2023/08/07 14:57:41;;;;;;;2.88;0.93;;;19.20;99.90;;;;;;8367389;28;20055;-80
2023/08/07 15:01:42;;;;;;;2.20;0.70;;;21.30;99.90;;;;;;8395585;28;20476;-82
2023/08/07 15:05:42;;;;;;;1.77;1.08;;;19.70;99.90;;;;;;8380732;28;20055;-80
2023/08/07 15:09:43;;;;;;;1.73;1.00;;;17.80;99.90;;;;;;8376605;28;20039;-80
2023/08/07 15:13:44;;;;;;;1.48;1.00;;;17.30;99.90;;;;;;8397062;28;20598;-80
2023/08/07 15:17:44;;;;;;;1.10;0.80;;;17.20;99.90;;;;;;8380148;28;20020;-81
2023/08/07 15:21:45;;;;;;;1.55;1.10;;;17.80;99.90;;;;;;8381054;28;20066;-81
2023/08/07 15:25:45;;;;;;;1.67;1.08;;;19.80;99.90;;;;;;8364947;28;20420;-80
2023/08/07 15:29:46;;;;;;;0.85;0.82;;;21.00;99.90;;;;;;8364397;28;20038;-80
2023/08/07 15:33:49;;;;;;;1.83;1.00;;;21.50;99.90;;;;;;8362377;28;20029;-81
2023/08/07 15:37:49;;;;;;;1.10;0.80;;;22.60;99.90;;;;;;8367718;28;20048;-80
2023/08/07 15:41:50;;;;;;;1.60;1.10;;;24.40;99.90;;;;;;8376583;28;20028;-82
2023/08/07 15:45:52;;;;;;;1.30;0.98;;;25.50;98.90;;;;;;8364705;28;20028;-81
2023/08/07 15:49:53;;;;;;;1.65;0.95;;;25.50;96.10;;;;;;8379890;28;20021;-81
2023/08/07 15:53:53;;;;;;;2.15;0.95;;;23.00;97.90;;;;;;8391030;28;20031;-81
2023/08/07 15:57:54;;;;;;;1.80;0.90;;;20.70;99.90;;;;;;8396459;28;20021;-81
2023/08/07 16:01:54;;;;;;;1.55;1.20;;;19.30;99.90;;;;;;8384638;28;20057;-81
2023/08/07 16:05:55;;;;;;;1.80;1.10;;;18.30;99.90;;;;;;8392045;28;20037;-82
2023/08/07 16:09:56;;;;;;;2.30;1.00;;;18.00;99.90;;;;;;8378197;28;20507;-81
2023/08/07 16:13:56;;;;;;;2.08;0.90;;;17.60;99.90;;;;;;8402658;28;20020;-82
2023/08/07 16:17:57;;;;;;;2.63;1.20;;;17.90;99.90;;;;;;8374151;28;20058;-81
2023/08/07 16:21:57;;;;;;;3.05;1.27;;;17.90;99.90;;;;;;8377868;28;20017;-81
2023/08/07 16:25:58;;;;;;;1.92;1.10;;;18.00;99.90;;;;;;8383337;28;20028;-80
2023/08/07 16:30:03;;;;;;;1.38;0.93;;;17.90;99.90;;;;;;8384360;28;20028;-81
2023/08/07 16:34:04;;;;;;;3.40;1.20;;;17.80;99.90;;;;;;8396832;28;20028;-81
2023/08/07 16:38:04;;;;;;;1.13;0.82;;;17.60;99.90;;;;;;8375837;28;20039;-80
2023/08/07 16:42:05;;;;;;;2.20;1.20;;;17.70;99.90;;;;;;8391050;28;20028;-82
2023/08/07 16:46:06;;;;;;;1.92;1.10;;;17.70;99.90;;;;;;8373357;28;20072;-82
2023/08/07 16:50:07;;;;;;;3.15;1.25;;;17.70;99.90;;;;;;8391814;28;20700;-82
2023/08/07 16:54:08;;;;;;;2.75;1.50;;;17.80;99.90;;;;;;8383470;28;20631;-83
2023/08/07 16:58:09;;;;;;;1.63;1.23;;;17.90;99.90;;;;;;8363536;28;20032;-81
2023/08/07 17:02:09;;;;;;;2.65;1.15;;;17.70;99.90;;;;;;8376486;28;20127;-82
2023/08/07 17:06:10;;;;;;;1.77;1.30;;;17.30;99.90;;;;;;8366522;28;20094;-80
2023/08/07 17:10:13;;;;;;;2.00;1.48;;;17.20;99.90;;;;;;8361136;28;20119;-81
2023/08/07 17:14:13;;;;;;;2.38;1.20;;;17.10;99.90;;;;;;8362534;28;20036;-83
2023/08/07 17:18:14;;;;;;;2.15;1.00;;;17.30;99.90;;;;;;8370976;28;20581;-81
2023/08/07 17:22:14;;;;;;;3.53;1.90;;;17.50;99.90;;;;;;8369143;28;20043;-82
2023/08/07 17:26:15;;;;;;;2.67;1.15;;;17.70;99.90;;;;;;8396805;28;20044;-84
2023/08/07 17:30:16;;;;;;;1.15;1.05;;;17.90;99.90;;;;;;8370354;28;20037;-82
2023/08/07 17:34:16;;;;;;;2.05;1.00;;;17.80;99.90;;;;;;8379043;28;20027;-82
2023/08/07 17:38:18;;;;;;;1.25;1.10;;;17.60;99.90;;;;;;8361930;28;20024;-80
2023/08/07 17:42:19;;;;;;;2.25;1.10;;;17.30;99.90;;;;;;8381270;28;20115;-84
2023/08/07 17:46:19;;;;;;;1.88;1.10;;;17.00;99.90;;;;;;8402787;28;20418;-86
2023/08/07 17:50:20;;;;;;;1.80;1.13;;;16.80;99.90;;;;;;8382080;28;20031;-84
2023/08/07 17:54:21;;;;;;;3.30;1.30;;;16.40;99.90;;;;;;8393212;28;21814;-82
2023/08/07 17:58:22;;;;;;;1.40;1.08;;;16.20;99.90;;;;;;8374837;28;20029;-82
2023/08/07 18:02:22;;;;;;;2.90;1.02;;;16.10;99.90;;;;;;8378169;28;20032;-81
2023/08/07 18:06:23;;;;;;;2.33;1.10;;;16.10;99.90;;;;;;8407364;22;20048;-84
2023/08/07 18:10:23;;;;;;;2.55;1.20;;;15.80;99.90;;;;;;8410441;28;20070;-86
2023/08/07 18:14:24;;;;;;;1.30;0.98;;;15.50;99.90;;;;;;8414957;28;20063;-84
2023/08/07 18:18:24;;;;;;;1.52;0.80;;;15.30;99.90;;;;;;8378515;28;20029;-84
2023/08/07 18:22:25;;;;;;;1.20;0.95;;;15.20;99.90;;;;;;8367467;28;20397;-84
2023/08/07 18:26:26;;;;;;;2.17;1.00;;;15.00;99.90;;;;;;8362760;28;20021;-84
2023/08/07 18:30:26;;;;;;;2.25;1.20;;;14.90;99.90;;;;;;8371396;28;20503;-81
2023/08/07 18:34:27;;;;;;;3.40;1.02;;;14.70;99.90;;;;;;8369732;28;20105;-82
2023/08/07 18:38:27;;;;;;;1.85;0.82;;;14.40;99.90;;;;;;8377639;28;20028;-81
2023/08/07 18:42:28;;;;;;;2.20;1.10;;;14.30;99.90;;;;;;8372099;28;20103;-83
2023/08/07 18:46:29;;;;;;;2.08;0.98;;;14.20;99.90;;;;;;8388477;28;20069;-84
2023/08/07 18:50:30;;;;;;;2.05;1.00;;;14.10;99.90;;;;;;8365347;28;20028;-83
2023/08/07 18:54:31;;;;;;;1.92;0.95;;;14.00;99.90;;;;;;8358273;28;20031;-84
2023/08/07 18:58:33;;;;;;;2.15;0.90;;;13.80;99.90;;;;;;8371802;28;20036;-84
2023/08/07 19:02:34;;;;;;;2.17;1.05;;;13.90;99.90;;;;;;8355110;28;20129;-84
2023/08/07 19:06:35;;;;;;;1.70;1.20;;;13.60;99.90;;;;;;8364572;28;20078;-84
2023/08/07 19:10:35;;;;;;;1.67;1.20;;;13.50;99.90;;;;;;8375772;28;20021;-83
2023/08/07 19:14:37;;;;;;;2.72;1.15;;;13.40;99.90;;;;;;8394021;28;20027;-84
2023/08/07 19:18:37;;;;;;;2.20;1.38;;;13.40;99.90;;;;;;8367006;28;20027;-84
2023/08/07 19:22:38;;;;;;;2.53;1.05;;;13.40;99.90;;;;;;8379234;28;20482;-85
2023/08/07 19:26:40;;;;;;;2.25;1.38;;;13.40;99.90;;;;;;8349821;28;20067;-85
2023/08/07 19:30:40;;;;;;;1.50;1.25;;;13.20;99.90;;;;;;8355776;28;20052;-85
2023/08/07 19:34:41;;;;;;;3.03;1.38;;;13.10;99.90;;;;;;8396906;28;20024;-85
2023/08/07 19:38:42;;;;;;;1.42;1.27;;;13.00;99.90;;;;;;8373481;28;21332;-85
2023/08/07 19:42:42;;;;;;;3.72;1.40;;;12.80;99.90;;;;;;8401245;28;20111;-84
2023/08/07 19:46:43;;;;;;;3.60;1.67;;;12.60;99.90;;;;;;8405372;28;20024;-84
2023/08/07 19:50:44;;;;;;;3.50;1.75;;;12.70;99.90;;;;;;8377776;28;20395;-84
2023/08/07 19:54:46;;;;;;;3.67;1.60;;;12.70;99.90;;;;;;8369971;28;20024;-84
2023/08/07 19:58:47;;;;;;;4.43;1.55;;;12.70;99.90;;;;;;8378339;28;20506;-84
2023/08/07 20:02:48;;;;;;;2.72;1.95;;;12.50;99.90;;;;;;8373940;28;20031;-84
2023/08/07 20:06:48;;;;;;;2.15;1.40;;;12.40;99.90;;;;;;8365782;28;20404;-84
2023/08/07 20:10:49;;;;;;;3.97;1.40;;;12.30;99.90;;;;;;8380411;28;20055;-85
2023/08/07 20:14:49;;;;;;;3.10;1.52;;;12.20;99.90;;;;;;8389530;28;20031;-84
2023/08/07 20:18:50;;;;;;;2.60;1.40;;;12.00;99.90;;;;;;8373450;28;20035;-84
2023/08/07 20:22:50;;;;;;;2.33;1.30;;;12.10;99.90;;;;;;8379927;28;20024;-84
2023/08/07 20:26:51;;;;;;;2.25;1.20;;;12.00;99.90;;;;;;8391315;28;20400;-84
2023/08/07 20:30:51;;;;;;;1.77;1.27;;;12.10;99.90;;;;;;8367408;28;20016;-85
2023/08/07 20:34:52;;;;;;;4.80;1.30;;;12.00;99.90;;;;;;8374821;28;20076;-85
2023/08/07 20:38:52;;;;;;;2.25;1.20;;;12.10;99.90;;;;;;8388961;28;20020;-84
2023/08/07 20:42:53;;;;;;;1.50;1.30;;;12.00;99.90;;;;;;8387388;28;20153;-85
2023/08/07 20:46:53;;;;;;;1.83;1.02;;;12.00;99.90;;;;;;8401274;28;20881;-84
2023/08/07 20:50:54;;;;;;;1.80;1.15;;;12.00;99.90;;;;;;8395427;28;20043;-84
2023/08/07 20:54:54;;;;;;;3.13;1.20;;;11.90;99.90;;;;;;8420679;28;20392;-85